createdAt,value
2017-07-29T00:00:19.478Z,0
2017-07-29T00:00:47.098Z,0
2017-07-29T00:01:13.789Z,0
2017-07-29T00:01:41.365Z,0
2017-07-29T00:02:08.910Z,0
2017-07-29T00:02:36.931Z,0
2017-07-29T00:03:03.796Z,0
2017-07-29T00:03:29.902Z,0
2017-07-29T00:03:56.051Z,0
2017-07-29T00:04:22.191Z,0
2017-07-29T00:04:48.351Z,0
2017-07-29T00:05:14.528Z,0
2017-07-29T00:05:40.644Z,0
2017-07-29T00:06:06.749Z,0
2017-07-29T00:06:32.889Z,0
2017-07-29T00:06:59.023Z,0
2017-07-29T00:07:25.144Z,0
2017-07-29T00:07:51.259Z,0
2017-07-29T00:08:17.392Z,0
2017-07-29T00:08:43.518Z,0
2017-07-29T00:09:09.658Z,0
2017-07-29T00:09:35.788Z,0
2017-07-29T00:10:01.916Z,0
2017-07-29T00:10:28.057Z,0
2017-07-29T00:10:54.184Z,0
2017-07-29T00:11:20.317Z,0
2017-07-29T00:11:46.435Z,0
2017-07-29T00:12:12.531Z,0
2017-07-29T00:12:38.697Z,0
2017-07-29T00:13:04.852Z,0
2017-07-29T00:13:31.005Z,0
2017-07-29T00:13:57.142Z,0
2017-07-29T00:14:23.270Z,0
2017-07-29T00:14:49.432Z,0
2017-07-29T00:15:15.572Z,0
2017-07-29T00:15:41.721Z,0
2017-07-29T00:16:07.855Z,0
2017-07-29T00:16:33.995Z,0
2017-07-29T00:17:00.140Z,0
2017-07-29T00:17:26.272Z,0
2017-07-29T00:17:52.365Z,0
2017-07-29T00:18:18.505Z,0
2017-07-29T00:18:44.643Z,0
2017-07-29T00:19:10.795Z,0
2017-07-29T00:19:36.933Z,0
2017-07-29T00:20:03.064Z,0
2017-07-29T00:20:29.193Z,0
2017-07-29T00:20:55.308Z,0
2017-07-29T00:21:21.438Z,0
2017-07-29T00:21:47.654Z,0
2017-07-29T00:22:13.789Z,0
2017-07-29T00:22:39.915Z,0
2017-07-29T00:23:06.064Z,0
2017-07-29T00:23:32.221Z,0
2017-07-29T00:23:58.431Z,0
2017-07-29T00:24:24.548Z,0
2017-07-29T00:24:50.699Z,0
2017-07-29T00:25:16.854Z,0
2017-07-29T00:25:42.946Z,0
2017-07-29T00:26:09.067Z,0
2017-07-29T00:26:35.256Z,0
2017-07-29T00:27:01.347Z,0
2017-07-29T00:27:27.516Z,0
2017-07-29T00:27:53.650Z,0
2017-07-29T00:28:19.799Z,0
2017-07-29T00:28:45.956Z,0
2017-07-29T00:29:12.090Z,0
2017-07-29T00:29:38.265Z,0
2017-07-29T00:30:04.402Z,0
2017-07-29T00:30:30.593Z,0
2017-07-29T00:30:56.714Z,0
2017-07-29T00:31:22.818Z,0
2017-07-29T00:31:48.936Z,0
2017-07-29T00:32:15.026Z,0
2017-07-29T00:32:41.160Z,0
2017-07-29T00:33:07.348Z,0
2017-07-29T00:33:33.464Z,0
2017-07-29T00:33:59.648Z,0
2017-07-29T00:34:25.748Z,0
2017-07-29T00:34:51.911Z,0
2017-07-29T00:35:18.058Z,0
2017-07-29T00:35:44.150Z,0
2017-07-29T00:36:10.309Z,0
2017-07-29T00:36:36.458Z,0
2017-07-29T00:37:02.591Z,0
2017-07-29T00:37:28.777Z,0
2017-07-29T00:37:54.932Z,0
2017-07-29T00:38:21.072Z,0
2017-07-29T00:38:47.174Z,0
2017-07-29T00:39:13.278Z,0
2017-07-29T00:39:39.390Z,0
2017-07-29T00:40:05.565Z,0
2017-07-29T00:40:31.698Z,0
2017-07-29T00:40:57.820Z,0
2017-07-29T00:41:23.991Z,0
2017-07-29T00:41:50.124Z,0
2017-07-29T00:42:16.496Z,0
2017-07-29T00:42:42.612Z,0
2017-07-29T00:43:08.721Z,0
2017-07-29T00:43:34.876Z,0
2017-07-29T00:44:00.989Z,0
2017-07-29T00:44:27.122Z,0
2017-07-29T00:44:53.249Z,0
2017-07-29T00:45:19.375Z,0
2017-07-29T00:45:45.531Z,0
2017-07-29T00:46:11.668Z,0
2017-07-29T00:46:37.830Z,0
2017-07-29T00:47:03.954Z,0
2017-07-29T00:47:30.070Z,0
2017-07-29T00:47:56.204Z,0
2017-07-29T00:48:22.304Z,0
2017-07-29T00:48:48.422Z,0
2017-07-29T00:49:14.591Z,0
2017-07-29T00:49:40.697Z,0
2017-07-29T00:50:06.839Z,0
2017-07-29T00:50:32.966Z,0
2017-07-29T00:50:59.138Z,0
2017-07-29T00:51:25.300Z,0
2017-07-29T00:51:51.427Z,0
2017-07-29T00:52:17.543Z,0
2017-07-29T00:52:43.697Z,0
2017-07-29T00:53:09.868Z,0
2017-07-29T00:53:35.957Z,0
2017-07-29T00:54:02.080Z,0
2017-07-29T00:54:28.240Z,0
2017-07-29T00:54:54.332Z,0
2017-07-29T00:55:20.476Z,0
2017-07-29T00:55:46.665Z,0
2017-07-29T00:56:12.759Z,0
2017-07-29T00:56:38.889Z,0
2017-07-29T00:57:05.026Z,0
2017-07-29T00:57:31.150Z,0
2017-07-29T00:57:57.283Z,0
2017-07-29T00:58:23.454Z,0
2017-07-29T00:58:49.571Z,0
2017-07-29T00:59:15.782Z,0
2017-07-29T00:59:41.875Z,0
2017-07-29T01:00:07.989Z,0
2017-07-29T01:00:34.099Z,0
2017-07-29T01:01:00.219Z,0
2017-07-29T01:01:26.334Z,0
2017-07-29T01:01:52.441Z,0
2017-07-29T01:02:18.560Z,0
2017-07-29T01:02:44.677Z,0
2017-07-29T01:03:10.806Z,0
2017-07-29T01:03:36.966Z,0
2017-07-29T01:04:03.105Z,0
2017-07-29T01:04:29.266Z,0
2017-07-29T01:04:55.400Z,0
2017-07-29T01:05:21.540Z,0
2017-07-29T01:05:47.802Z,0
2017-07-29T01:06:13.935Z,0
2017-07-29T01:06:40.105Z,0
2017-07-29T01:07:06.293Z,0
2017-07-29T01:07:32.426Z,0
2017-07-29T01:07:58.561Z,0
2017-07-29T01:08:24.696Z,0
2017-07-29T01:08:50.892Z,0
2017-07-29T01:09:16.987Z,0
2017-07-29T01:09:43.177Z,0
2017-07-29T01:10:09.327Z,0
2017-07-29T01:10:35.465Z,0
2017-07-29T01:11:01.574Z,0
2017-07-29T01:11:27.725Z,0
2017-07-29T01:11:53.866Z,0
2017-07-29T01:12:20.025Z,0
2017-07-29T01:12:46.125Z,0
2017-07-29T01:13:12.248Z,0
2017-07-29T01:13:38.418Z,0
2017-07-29T01:14:04.533Z,0
2017-07-29T01:14:30.668Z,0
2017-07-29T01:14:56.763Z,0
2017-07-29T01:15:22.946Z,0
2017-07-29T01:15:49.085Z,0
2017-07-29T01:16:15.206Z,0
2017-07-29T01:16:41.345Z,0
2017-07-29T01:17:07.526Z,0
2017-07-29T01:17:33.686Z,0
2017-07-29T01:17:59.820Z,0
2017-07-29T01:18:25.943Z,0
2017-07-29T01:18:52.063Z,0
2017-07-29T01:19:18.222Z,0
2017-07-29T01:19:44.350Z,0
2017-07-29T01:20:10.461Z,0
2017-07-29T01:20:36.594Z,0
2017-07-29T01:21:02.784Z,0
2017-07-29T01:21:28.873Z,0
2017-07-29T01:21:55.042Z,0
2017-07-29T01:22:21.204Z,0
2017-07-29T01:22:47.438Z,0
2017-07-29T01:23:13.553Z,0
2017-07-29T01:23:39.691Z,0
2017-07-29T01:24:05.785Z,0
2017-07-29T01:24:31.914Z,0
2017-07-29T01:24:58.079Z,0
2017-07-29T01:25:24.233Z,0
2017-07-29T01:25:50.393Z,0
2017-07-29T01:26:16.482Z,0
2017-07-29T01:26:42.635Z,0
2017-07-29T01:27:08.770Z,0
2017-07-29T01:27:34.891Z,0
2017-07-29T01:28:01.005Z,0
2017-07-29T01:28:27.251Z,0
2017-07-29T01:28:53.402Z,0
2017-07-29T01:29:19.564Z,0
2017-07-29T01:29:45.670Z,0
2017-07-29T01:30:11.813Z,0
2017-07-29T01:30:37.946Z,0
2017-07-29T01:31:04.044Z,0
2017-07-29T01:31:30.132Z,0
2017-07-29T01:31:56.294Z,0
2017-07-29T01:32:22.391Z,0
2017-07-29T01:32:48.530Z,0
2017-07-29T01:33:14.659Z,0
2017-07-29T01:33:40.814Z,0
2017-07-29T01:34:06.954Z,0
2017-07-29T01:34:33.079Z,0
2017-07-29T01:34:59.210Z,0
2017-07-29T01:35:25.381Z,0
2017-07-29T01:35:51.533Z,0
2017-07-29T01:36:17.649Z,0
2017-07-29T01:36:43.805Z,0
2017-07-29T01:37:09.988Z,0
2017-07-29T01:37:36.104Z,0
2017-07-29T01:38:02.206Z,0
2017-07-29T01:38:28.368Z,0
2017-07-29T01:38:54.487Z,0
2017-07-29T01:39:20.631Z,0
2017-07-29T01:39:46.766Z,0
2017-07-29T01:40:12.960Z,0
2017-07-29T01:40:39.104Z,0
2017-07-29T01:41:05.310Z,0
2017-07-29T01:41:31.490Z,0
2017-07-29T01:41:57.650Z,0
2017-07-29T01:42:23.783Z,0
2017-07-29T01:42:49.886Z,0
2017-07-29T01:43:16.020Z,0
2017-07-29T01:43:42.162Z,0
2017-07-29T01:44:08.283Z,0
2017-07-29T01:44:34.418Z,0
2017-07-29T01:45:00.536Z,0
2017-07-29T01:45:26.673Z,0
2017-07-29T01:45:52.813Z,0
2017-07-29T01:46:18.966Z,0
2017-07-29T01:46:45.080Z,0
2017-07-29T01:47:11.238Z,0
2017-07-29T01:47:37.367Z,0
2017-07-29T01:48:03.505Z,0
2017-07-29T01:48:29.611Z,0
2017-07-29T01:48:55.774Z,0
2017-07-29T01:49:21.935Z,0
2017-07-29T01:49:48.085Z,0
2017-07-29T01:50:14.217Z,0
2017-07-29T01:50:40.332Z,0
2017-07-29T01:51:06.477Z,0
2017-07-29T01:51:32.612Z,0
2017-07-29T01:51:58.740Z,0
2017-07-29T01:52:24.867Z,0
2017-07-29T01:52:51.003Z,0
2017-07-29T01:53:17.153Z,0
2017-07-29T01:53:43.285Z,0
2017-07-29T01:54:09.456Z,0
2017-07-29T01:54:35.579Z,0
2017-07-29T01:55:01.687Z,0
2017-07-29T01:55:27.864Z,0
2017-07-29T01:55:53.970Z,0
2017-07-29T01:56:20.102Z,0
2017-07-29T01:56:46.251Z,0
2017-07-29T01:57:12.389Z,0
2017-07-29T01:57:38.522Z,0
2017-07-29T01:58:04.668Z,0
2017-07-29T01:58:30.772Z,0
2017-07-29T01:58:56.892Z,0
2017-07-29T01:59:23.008Z,0
2017-07-29T01:59:49.172Z,0
2017-07-29T02:00:15.324Z,0
2017-07-29T02:00:41.464Z,0
2017-07-29T02:01:07.570Z,0
2017-07-29T02:01:33.699Z,0
2017-07-29T02:01:59.835Z,0
2017-07-29T02:02:25.962Z,0
2017-07-29T02:02:52.095Z,0
2017-07-29T02:03:18.189Z,0
2017-07-29T02:03:44.286Z,0
2017-07-29T02:04:10.403Z,0
2017-07-29T02:04:36.525Z,0
2017-07-29T02:05:02.614Z,0
2017-07-29T02:05:28.726Z,0
2017-07-29T02:05:54.829Z,0
2017-07-29T02:06:20.962Z,0
2017-07-29T02:06:47.073Z,0
2017-07-29T02:07:13.198Z,0
2017-07-29T02:07:39.332Z,0
2017-07-29T02:08:05.474Z,0
2017-07-29T02:08:31.570Z,0
2017-07-29T02:08:57.722Z,0
2017-07-29T02:09:23.823Z,0
2017-07-29T02:09:49.928Z,0
2017-07-29T02:10:16.066Z,0
2017-07-29T02:10:42.217Z,0
2017-07-29T02:11:08.380Z,0
2017-07-29T02:11:34.552Z,0
2017-07-29T02:12:00.702Z,0
2017-07-29T02:12:26.832Z,0
2017-07-29T02:12:52.979Z,0
2017-07-29T02:13:19.117Z,0
2017-07-29T02:13:45.308Z,0
2017-07-29T02:14:11.457Z,0
2017-07-29T02:14:37.611Z,0
2017-07-29T02:15:03.761Z,0
2017-07-29T02:15:29.883Z,0
2017-07-29T02:15:56.045Z,0
2017-07-29T02:16:22.196Z,0
2017-07-29T02:16:48.329Z,0
2017-07-29T02:17:14.466Z,0
2017-07-29T02:17:40.561Z,0
2017-07-29T02:18:06.684Z,0
2017-07-29T02:18:32.841Z,0
2017-07-29T02:18:58.965Z,0
2017-07-29T02:19:25.081Z,0
2017-07-29T02:19:51.207Z,0
2017-07-29T02:20:17.349Z,0
2017-07-29T02:20:43.515Z,0
2017-07-29T02:21:09.639Z,0
2017-07-29T02:21:35.755Z,0
2017-07-29T02:22:01.862Z,0
2017-07-29T02:22:28.017Z,0
2017-07-29T02:22:54.155Z,0
2017-07-29T02:23:20.257Z,0
2017-07-29T02:23:46.416Z,0
2017-07-29T02:24:12.503Z,0
2017-07-29T02:24:38.603Z,0
2017-07-29T02:25:04.769Z,0
2017-07-29T02:25:30.936Z,0
2017-07-29T02:25:57.093Z,0
2017-07-29T02:26:23.183Z,0
2017-07-29T02:26:49.333Z,0
2017-07-29T02:27:15.466Z,0
2017-07-29T02:27:41.554Z,0
2017-07-29T02:28:07.676Z,0
2017-07-29T02:28:33.809Z,0
2017-07-29T02:28:59.951Z,0
2017-07-29T02:29:26.107Z,0
2017-07-29T02:29:52.241Z,0
2017-07-29T02:30:18.335Z,0
2017-07-29T02:30:44.475Z,0
2017-07-29T02:31:10.666Z,0
2017-07-29T02:31:36.860Z,0
2017-07-29T02:32:02.997Z,0
2017-07-29T02:32:29.132Z,0
2017-07-29T02:32:55.289Z,0
2017-07-29T02:33:21.463Z,0
2017-07-29T02:33:47.616Z,0
2017-07-29T02:34:13.723Z,0
2017-07-29T02:34:39.860Z,0
2017-07-29T02:35:05.985Z,0
2017-07-29T02:35:32.160Z,0
2017-07-29T02:35:58.277Z,0
2017-07-29T02:36:24.397Z,0
2017-07-29T02:36:50.550Z,0
2017-07-29T02:37:16.732Z,0
2017-07-29T02:37:42.865Z,0
2017-07-29T02:38:08.950Z,0
2017-07-29T02:38:35.122Z,0
2017-07-29T02:39:01.256Z,0
2017-07-29T02:39:27.375Z,0
2017-07-29T02:39:53.544Z,0
2017-07-29T02:40:19.674Z,0
2017-07-29T02:40:45.820Z,0
2017-07-29T02:41:11.957Z,0
2017-07-29T02:41:38.117Z,0
2017-07-29T02:42:04.242Z,0
2017-07-29T02:42:30.443Z,0
2017-07-29T02:42:56.562Z,0
2017-07-29T02:43:22.734Z,0
2017-07-29T02:43:48.840Z,0
2017-07-29T02:44:14.969Z,0
2017-07-29T02:44:41.082Z,0
2017-07-29T02:45:07.193Z,0
2017-07-29T02:45:33.372Z,0
2017-07-29T02:45:59.490Z,0
2017-07-29T02:46:25.648Z,0
2017-07-29T02:46:51.801Z,0
2017-07-29T02:47:17.942Z,0
2017-07-29T02:47:44.070Z,0
2017-07-29T02:48:10.185Z,0
2017-07-29T02:48:36.296Z,0
2017-07-29T02:49:02.448Z,0
2017-07-29T02:49:28.562Z,0
2017-07-29T02:49:54.668Z,0
2017-07-29T02:50:20.796Z,0
2017-07-29T02:50:46.912Z,0
2017-07-29T02:51:13.016Z,0
2017-07-29T02:51:39.121Z,0
2017-07-29T02:52:05.208Z,0
2017-07-29T02:52:31.408Z,0
2017-07-29T02:52:57.515Z,0
2017-07-29T02:53:23.662Z,0
2017-07-29T02:53:49.764Z,0
2017-07-29T02:54:15.881Z,0
2017-07-29T02:54:41.984Z,0
2017-07-29T02:55:08.117Z,0
2017-07-29T02:55:34.255Z,0
2017-07-29T02:56:00.355Z,0
2017-07-29T02:56:26.462Z,0
2017-07-29T02:56:52.550Z,0
2017-07-29T02:57:18.695Z,0
2017-07-29T02:57:44.801Z,0
2017-07-29T02:58:10.923Z,0
2017-07-29T02:58:37.036Z,0
2017-07-29T02:59:03.217Z,0
2017-07-29T02:59:29.365Z,0
2017-07-29T02:59:55.470Z,0
2017-07-29T03:00:21.657Z,0
2017-07-29T03:00:47.762Z,0
2017-07-29T03:01:13.890Z,0
2017-07-29T03:01:40.011Z,0
2017-07-29T03:02:06.177Z,0
2017-07-29T03:02:32.312Z,0
2017-07-29T03:02:58.438Z,0
2017-07-29T03:03:24.552Z,0
2017-07-29T03:03:50.713Z,0
2017-07-29T03:04:16.870Z,0
2017-07-29T03:04:42.973Z,0
2017-07-29T03:05:09.063Z,0
2017-07-29T03:05:35.154Z,0
2017-07-29T03:06:01.324Z,0
2017-07-29T03:06:27.514Z,0
2017-07-29T03:06:53.619Z,0
2017-07-29T03:07:19.748Z,0
2017-07-29T03:07:45.875Z,0
2017-07-29T03:08:12.064Z,0
2017-07-29T03:08:38.167Z,0
2017-07-29T03:09:04.308Z,0
2017-07-29T03:09:30.440Z,0
2017-07-29T03:09:56.541Z,0
2017-07-29T03:10:22.636Z,0
2017-07-29T03:10:48.739Z,0
2017-07-29T03:11:14.866Z,0
2017-07-29T03:11:40.983Z,0
2017-07-29T03:12:07.134Z,0
2017-07-29T03:12:33.298Z,0
2017-07-29T03:12:59.461Z,0
2017-07-29T03:13:25.559Z,0
2017-07-29T03:13:51.667Z,0
2017-07-29T03:14:17.835Z,0
2017-07-29T03:14:43.957Z,0
2017-07-29T03:15:10.119Z,0
2017-07-29T03:15:36.270Z,0
2017-07-29T03:16:02.455Z,0
2017-07-29T03:16:28.589Z,0
2017-07-29T03:16:54.723Z,0
2017-07-29T03:17:20.815Z,4
2017-07-29T03:17:46.947Z,4
2017-07-29T03:18:13.075Z,4
2017-07-29T03:18:39.219Z,4
2017-07-29T03:19:05.396Z,4
2017-07-29T03:19:31.556Z,4
2017-07-29T03:19:57.645Z,4
2017-07-29T03:20:23.794Z,4
2017-07-29T03:20:49.927Z,0
2017-07-29T03:21:16.042Z,4
2017-07-29T03:21:42.173Z,4
2017-07-29T03:22:08.289Z,4
2017-07-29T03:22:34.421Z,4
2017-07-29T03:23:00.607Z,8
2017-07-29T03:23:26.719Z,4
2017-07-29T03:23:52.844Z,4
2017-07-29T03:24:19.004Z,8
2017-07-29T03:24:45.146Z,8
2017-07-29T03:25:11.267Z,8
2017-07-29T03:25:37.429Z,8
2017-07-29T03:26:03.522Z,8
2017-07-29T03:26:29.640Z,8
2017-07-29T03:26:55.771Z,8
2017-07-29T03:27:21.945Z,8
2017-07-29T03:27:48.053Z,12
2017-07-29T03:28:14.208Z,12
2017-07-29T03:28:40.350Z,8
2017-07-29T03:29:06.455Z,12
2017-07-29T03:29:32.576Z,16
2017-07-29T03:29:59.026Z,12
2017-07-29T03:30:25.128Z,16
2017-07-29T03:30:51.303Z,20
2017-07-29T03:31:17.465Z,20
2017-07-29T03:31:43.619Z,20
2017-07-29T03:32:09.776Z,24
2017-07-29T03:32:35.977Z,24
2017-07-29T03:33:02.125Z,28
2017-07-29T03:33:28.267Z,28
2017-07-29T03:33:54.398Z,32
2017-07-29T03:34:20.549Z,28
2017-07-29T03:34:46.712Z,32
2017-07-29T03:35:12.895Z,32
2017-07-29T03:35:39.030Z,32
2017-07-29T03:36:05.147Z,32
2017-07-29T03:36:31.273Z,32
2017-07-29T03:36:57.465Z,32
2017-07-29T03:37:23.604Z,32
2017-07-29T03:37:49.729Z,32
2017-07-29T03:38:15.901Z,32
2017-07-29T03:38:42.034Z,32
2017-07-29T03:39:08.190Z,36
2017-07-29T03:39:34.344Z,36
2017-07-29T03:40:00.474Z,40
2017-07-29T03:40:26.635Z,40
2017-07-29T03:40:52.724Z,40
2017-07-29T03:41:18.874Z,40
2017-07-29T03:41:45.008Z,44
2017-07-29T03:42:11.100Z,44
2017-07-29T03:42:37.219Z,44
2017-07-29T03:43:03.352Z,48
2017-07-29T03:43:29.494Z,56
2017-07-29T03:43:55.623Z,60
2017-07-29T03:44:21.736Z,68
2017-07-29T03:44:47.872Z,72
2017-07-29T03:45:14.029Z,80
2017-07-29T03:45:40.174Z,88
2017-07-29T03:46:06.271Z,92
2017-07-29T03:46:32.378Z,100
2017-07-29T03:46:58.497Z,108
2017-07-29T03:47:24.589Z,116
2017-07-29T03:47:50.751Z,128
2017-07-29T03:48:16.929Z,132
2017-07-29T03:48:43.066Z,140
2017-07-29T03:49:09.226Z,148
2017-07-29T03:49:35.346Z,152
2017-07-29T03:50:01.453Z,156
2017-07-29T03:50:27.631Z,160
2017-07-29T03:50:53.745Z,160
2017-07-29T03:51:19.906Z,156
2017-07-29T03:51:46.027Z,152
2017-07-29T03:52:12.165Z,152
2017-07-29T03:52:38.325Z,148
2017-07-29T03:53:04.500Z,148
2017-07-29T03:53:30.662Z,144
2017-07-29T03:53:56.765Z,148
2017-07-29T03:54:22.927Z,148
2017-07-29T03:54:49.047Z,144
2017-07-29T03:55:15.145Z,148
2017-07-29T03:55:41.283Z,152
2017-07-29T03:56:07.442Z,156
2017-07-29T03:56:33.597Z,160
2017-07-29T03:56:59.690Z,160
2017-07-29T03:57:25.794Z,164
2017-07-29T03:57:51.955Z,168
2017-07-29T03:58:18.096Z,176
2017-07-29T03:58:44.198Z,184
2017-07-29T03:59:10.332Z,192
2017-07-29T03:59:36.446Z,204
2017-07-29T04:00:02.543Z,212
2017-07-29T04:00:28.651Z,224
2017-07-29T04:00:54.800Z,240
2017-07-29T04:01:20.915Z,252
2017-07-29T04:01:47.081Z,264
2017-07-29T04:02:13.205Z,276
2017-07-29T04:02:39.321Z,284
2017-07-29T04:03:05.454Z,288
2017-07-29T04:03:31.583Z,296
2017-07-29T04:03:57.671Z,304
2017-07-29T04:04:23.862Z,312
2017-07-29T04:04:49.995Z,324
2017-07-29T04:05:16.134Z,340
2017-07-29T04:05:42.266Z,352
2017-07-29T04:06:08.381Z,356
2017-07-29T04:06:34.513Z,356
2017-07-29T04:07:00.698Z,352
2017-07-29T04:07:26.787Z,344
2017-07-29T04:07:52.913Z,340
2017-07-29T04:08:19.076Z,340
2017-07-29T04:08:45.165Z,344
2017-07-29T04:09:11.313Z,348
2017-07-29T04:09:37.450Z,360
2017-07-29T04:10:03.563Z,372
2017-07-29T04:10:29.670Z,384
2017-07-29T04:10:55.831Z,396
2017-07-29T04:11:21.979Z,404
2017-07-29T04:11:48.108Z,412
2017-07-29T04:12:14.221Z,416
2017-07-29T04:12:40.373Z,420
2017-07-29T04:13:06.536Z,428
2017-07-29T04:13:32.654Z,436
2017-07-29T04:13:58.800Z,448
2017-07-29T04:14:24.964Z,456
2017-07-29T04:14:51.139Z,468
2017-07-29T04:15:17.280Z,480
2017-07-29T04:15:43.421Z,480
2017-07-29T04:16:09.539Z,472
2017-07-29T04:16:35.655Z,460
2017-07-29T04:17:01.788Z,448
2017-07-29T04:17:27.981Z,440
2017-07-29T04:17:54.115Z,436
2017-07-29T04:18:20.265Z,432
2017-07-29T04:18:46.353Z,444
2017-07-29T04:19:12.463Z,468
2017-07-29T04:19:38.645Z,500
2017-07-29T04:20:04.736Z,528
2017-07-29T04:20:30.871Z,552
2017-07-29T04:20:56.998Z,584
2017-07-29T04:21:23.115Z,616
2017-07-29T04:21:49.244Z,648
2017-07-29T04:22:15.352Z,688
2017-07-29T04:22:41.473Z,732
2017-07-29T04:23:07.655Z,760
2017-07-29T04:23:33.744Z,768
2017-07-29T04:23:59.885Z,756
2017-07-29T04:24:26.063Z,728
2017-07-29T04:24:52.200Z,692
2017-07-29T04:25:18.303Z,656
2017-07-29T04:25:44.436Z,648
2017-07-29T04:26:10.573Z,660
2017-07-29T04:26:36.723Z,688
2017-07-29T04:27:02.856Z,736
2017-07-29T04:27:28.947Z,780
2017-07-29T04:27:55.068Z,832
2017-07-29T04:28:21.241Z,884
2017-07-29T04:28:47.369Z,936
2017-07-29T04:29:13.503Z,976
2017-07-29T04:29:39.615Z,1012
2017-07-29T04:30:05.740Z,1052
2017-07-29T04:30:31.876Z,1092
2017-07-29T04:30:57.994Z,1132
2017-07-29T04:31:24.113Z,1176
2017-07-29T04:31:50.271Z,1232
2017-07-29T04:32:16.364Z,1296
2017-07-29T04:32:42.480Z,1364
2017-07-29T04:33:08.615Z,1428
2017-07-29T04:33:34.738Z,1492
2017-07-29T04:34:00.839Z,1540
2017-07-29T04:34:26.977Z,1588
2017-07-29T04:34:53.098Z,1652
2017-07-29T04:35:19.233Z,1708
2017-07-29T04:35:45.353Z,1752
2017-07-29T04:36:11.469Z,1772
2017-07-29T04:36:37.604Z,1780
2017-07-29T04:37:03.700Z,1792
2017-07-29T04:37:29.816Z,1788
2017-07-29T04:37:55.946Z,1804
2017-07-29T04:38:22.105Z,1848
2017-07-29T04:38:48.267Z,1924
2017-07-29T04:39:14.397Z,2016
2017-07-29T04:39:40.511Z,2092
2017-07-29T04:40:06.646Z,2136
2017-07-29T04:40:32.769Z,2168
2017-07-29T04:40:58.885Z,2204
2017-07-29T04:41:25.043Z,2224
2017-07-29T04:41:51.201Z,2264
2017-07-29T04:42:17.340Z,2328
2017-07-29T04:42:43.471Z,2384
2017-07-29T04:43:09.633Z,2404
2017-07-29T04:43:35.720Z,2384
2017-07-29T04:44:01.846Z,2368
2017-07-29T04:44:27.977Z,2340
2017-07-29T04:44:54.120Z,2292
2017-07-29T04:45:20.216Z,2212
2017-07-29T04:45:46.376Z,2128
2017-07-29T04:46:12.523Z,2056
2017-07-29T04:46:38.639Z,1984
2017-07-29T04:47:04.806Z,1940
2017-07-29T04:47:30.930Z,1948
2017-07-29T04:47:57.069Z,1996
2017-07-29T04:48:23.176Z,2064
2017-07-29T04:48:49.330Z,2124
2017-07-29T04:49:15.494Z,2188
2017-07-29T04:49:41.596Z,2252
2017-07-29T04:50:07.759Z,2340
2017-07-29T04:50:33.904Z,2424
2017-07-29T04:51:00.001Z,2504
2017-07-29T04:51:26.116Z,2560
2017-07-29T04:51:52.220Z,2580
2017-07-29T04:52:18.322Z,2572
2017-07-29T04:52:44.438Z,2528
2017-07-29T04:53:10.566Z,2464
2017-07-29T04:53:36.724Z,2412
2017-07-29T04:54:02.812Z,2432
2017-07-29T04:54:28.937Z,2508
2017-07-29T04:54:55.100Z,2616
2017-07-29T04:55:21.243Z,2688
2017-07-29T04:55:47.364Z,2728
2017-07-29T04:56:13.487Z,2752
2017-07-29T04:56:39.593Z,2812
2017-07-29T04:57:05.729Z,2852
2017-07-29T04:57:31.861Z,2784
2017-07-29T04:57:58.012Z,2572
2017-07-29T04:58:24.172Z,2292
2017-07-29T04:58:50.364Z,2060
2017-07-29T04:59:16.462Z,1928
2017-07-29T04:59:42.624Z,1892
2017-07-29T05:00:08.773Z,1932
2017-07-29T05:00:34.889Z,2012
2017-07-29T05:01:01.024Z,2104
2017-07-29T05:01:27.207Z,2232
2017-07-29T05:01:53.311Z,2376
2017-07-29T05:02:19.425Z,2532
2017-07-29T05:02:45.571Z,2676
2017-07-29T05:03:11.791Z,2776
2017-07-29T05:03:37.937Z,2820
2017-07-29T05:04:04.026Z,2816
2017-07-29T05:04:30.136Z,2780
2017-07-29T05:04:56.316Z,2728
2017-07-29T05:05:22.456Z,2704
2017-07-29T05:05:48.588Z,2728
2017-07-29T05:06:14.714Z,2804
2017-07-29T05:06:40.803Z,2928
2017-07-29T05:07:06.931Z,3112
2017-07-29T05:07:33.074Z,3348
2017-07-29T05:07:59.312Z,3636
2017-07-29T05:08:25.495Z,3960
2017-07-29T05:08:51.681Z,4264
2017-07-29T05:09:17.816Z,4508
2017-07-29T05:09:43.947Z,4704
2017-07-29T05:10:10.113Z,4828
2017-07-29T05:10:36.268Z,4908
2017-07-29T05:11:02.401Z,5012
2017-07-29T05:11:28.511Z,5084
2017-07-29T05:11:54.636Z,5168
2017-07-29T05:12:20.796Z,5292
2017-07-29T05:12:46.914Z,5372
2017-07-29T05:13:13.047Z,5432
2017-07-29T05:13:39.213Z,5452
2017-07-29T05:14:05.366Z,5448
2017-07-29T05:14:31.526Z,5456
2017-07-29T05:14:57.612Z,5528
2017-07-29T05:15:23.763Z,5592
2017-07-29T05:15:49.897Z,5664
2017-07-29T05:16:16.041Z,5812
2017-07-29T05:16:42.168Z,5948
2017-07-29T05:17:08.273Z,6028
2017-07-29T05:17:34.367Z,6064
2017-07-29T05:18:00.484Z,6080
2017-07-29T05:18:26.588Z,6124
2017-07-29T05:18:52.715Z,6232
2017-07-29T05:19:18.907Z,6408
2017-07-29T05:19:45.021Z,6596
2017-07-29T05:20:11.142Z,6800
2017-07-29T05:20:37.301Z,6960
2017-07-29T05:21:03.444Z,7108
2017-07-29T05:21:29.536Z,7200
2017-07-29T05:21:55.645Z,7300
2017-07-29T05:22:21.743Z,7432
2017-07-29T05:22:47.887Z,7528
2017-07-29T05:23:14.076Z,7648
2017-07-29T05:23:40.199Z,7836
2017-07-29T05:24:06.302Z,8028
2017-07-29T05:24:32.452Z,8188
2017-07-29T05:24:58.543Z,8320
2017-07-29T05:25:24.703Z,8388
2017-07-29T05:25:50.831Z,8516
2017-07-29T05:26:16.969Z,8872
2017-07-29T05:26:43.130Z,9320
2017-07-29T05:27:09.286Z,9648
2017-07-29T05:27:35.378Z,9824
2017-07-29T05:28:01.482Z,9784
2017-07-29T05:28:27.644Z,9632
2017-07-29T05:28:53.754Z,9384
2017-07-29T05:29:19.929Z,9084
2017-07-29T05:29:46.094Z,8752
2017-07-29T05:30:12.208Z,8456
2017-07-29T05:30:38.328Z,8316
2017-07-29T05:31:04.519Z,8104
2017-07-29T05:31:30.641Z,7996
2017-07-29T05:31:56.781Z,8076
2017-07-29T05:32:22.918Z,8192
2017-07-29T05:32:49.043Z,8320
2017-07-29T05:33:15.183Z,8416
2017-07-29T05:33:41.341Z,8408
2017-07-29T05:34:07.466Z,8128
2017-07-29T05:34:33.629Z,7904
2017-07-29T05:34:59.730Z,7480
2017-07-29T05:35:25.879Z,7400
2017-07-29T05:35:52.036Z,7460
2017-07-29T05:36:18.161Z,7592
2017-07-29T05:36:44.278Z,7756
2017-07-29T05:37:10.385Z,7884
2017-07-29T05:37:36.514Z,7940
2017-07-29T05:38:02.679Z,7904
2017-07-29T05:38:28.836Z,7832
2017-07-29T05:38:54.971Z,7604
2017-07-29T05:39:21.083Z,7352
2017-07-29T05:39:47.187Z,7136
2017-07-29T05:40:13.375Z,6944
2017-07-29T05:40:39.524Z,6728
2017-07-29T05:41:05.627Z,6528
2017-07-29T05:41:31.743Z,6416
2017-07-29T05:41:57.846Z,6376
2017-07-29T05:42:23.982Z,6420
2017-07-29T05:42:50.146Z,6452
2017-07-29T05:43:16.272Z,6396
2017-07-29T05:43:42.407Z,6192
2017-07-29T05:44:08.497Z,5908
2017-07-29T05:44:34.617Z,5620
2017-07-29T05:45:00.781Z,5380
2017-07-29T05:45:26.904Z,5204
2017-07-29T05:45:53.019Z,5032
2017-07-29T05:46:19.178Z,4884
2017-07-29T05:46:45.275Z,4824
2017-07-29T05:47:11.409Z,4892
2017-07-29T05:47:37.501Z,5120
2017-07-29T05:48:03.623Z,5416
2017-07-29T05:48:29.758Z,5724
2017-07-29T05:48:55.908Z,6088
2017-07-29T05:49:22.047Z,6584
2017-07-29T05:49:48.208Z,7104
2017-07-29T05:50:14.333Z,7612
2017-07-29T05:50:40.450Z,8040
2017-07-29T05:51:06.637Z,8456
2017-07-29T05:51:32.795Z,8848
2017-07-29T05:51:58.944Z,9332
2017-07-29T05:52:25.038Z,9864
2017-07-29T05:52:51.129Z,10440
2017-07-29T05:53:17.241Z,10688
2017-07-29T05:53:43.444Z,10220
2017-07-29T05:54:09.535Z,10144
2017-07-29T05:54:35.670Z,9528
2017-07-29T05:55:01.826Z,8784
2017-07-29T05:55:27.989Z,8080
2017-07-29T05:55:54.115Z,7512
2017-07-29T05:56:20.280Z,7176
2017-07-29T05:56:46.444Z,6912
2017-07-29T05:57:12.593Z,6944
2017-07-29T05:57:38.686Z,7356
2017-07-29T05:58:04.849Z,7300
2017-07-29T05:58:31.004Z,7508
2017-07-29T05:58:57.095Z,8084
2017-07-29T05:59:23.226Z,8032
2017-07-29T05:59:49.420Z,8052
2017-07-29T06:00:15.559Z,8152
2017-07-29T06:00:41.685Z,8412
2017-07-29T06:01:07.792Z,8908
2017-07-29T06:01:33.936Z,9680
2017-07-29T06:02:00.057Z,10828
2017-07-29T06:02:26.219Z,12232
2017-07-29T06:02:52.341Z,13648
2017-07-29T06:03:18.444Z,14832
2017-07-29T06:03:44.534Z,15644
2017-07-29T06:04:10.631Z,16056
2017-07-29T06:04:36.795Z,16000
2017-07-29T06:05:02.909Z,15812
2017-07-29T06:05:29.080Z,15536
2017-07-29T06:05:55.188Z,15356
2017-07-29T06:06:21.334Z,15168
2017-07-29T06:06:47.473Z,15108
2017-07-29T06:07:13.612Z,14480
2017-07-29T06:07:39.737Z,14148
2017-07-29T06:08:05.826Z,13912
2017-07-29T06:08:31.961Z,13844
2017-07-29T06:08:58.082Z,13952
2017-07-29T06:09:24.216Z,13928
2017-07-29T06:09:50.338Z,13896
2017-07-29T06:10:16.504Z,13820
2017-07-29T06:10:42.639Z,14192
2017-07-29T06:11:08.820Z,14208